createdAt,value
2018-06-08T00:01:08.423Z,99578.00
2018-06-08T00:03:37.491Z,99587.00
2018-06-08T00:06:06.545Z,99587.00
2018-06-08T00:08:35.567Z,99590.00
2018-06-08T00:11:04.615Z,99598.00
2018-06-08T00:13:33.651Z,99589.00
2018-06-08T00:16:02.895Z,99589.00
2018-06-08T00:18:31.930Z,99595.00
2018-06-08T00:21:01.018Z,99597.00
2018-06-08T00:23:30.048Z,99598.00
2018-06-08T00:25:59.112Z,99597.00
2018-06-08T00:28:28.163Z,99593.00
2018-06-08T00:30:56.999Z,99587.00
2018-06-08T00:33:26.045Z,99593.00
2018-06-08T00:35:55.103Z,99594.00
2018-06-08T00:38:24.155Z,99596.00
2018-06-08T00:40:53.203Z,99591.00
2018-06-08T00:43:22.263Z,99589.00
2018-06-08T00:45:51.320Z,99579.00
2018-06-08T00:48:20.379Z,99575.00
2018-06-08T00:50:49.444Z,99568.00
2018-06-08T00:53:18.487Z,99571.00
2018-06-08T00:55:47.563Z,99568.00
2018-06-08T00:58:16.607Z,99561.00
2018-06-08T01:00:45.667Z,99562.00
2018-06-08T01:03:14.711Z,99563.00
2018-06-08T01:05:43.759Z,99573.00
2018-06-08T01:08:12.818Z,99575.00
2018-06-08T01:10:41.863Z,99586.00
2018-06-08T01:13:12.918Z,99593.00
2018-06-08T01:15:42.608Z,99586.00
2018-06-08T01:18:11.665Z,99579.00
2018-06-08T01:20:40.704Z,99580.00
2018-06-08T01:23:09.743Z,99582.00
2018-06-08T01:25:38.783Z,99576.00
2018-06-08T01:28:07.837Z,99578.00
2018-06-08T01:30:36.938Z,99572.00
2018-06-08T01:33:06.048Z,99569.00
2018-06-08T01:35:35.091Z,99571.00
2018-06-08T01:38:04.139Z,99575.00
2018-06-08T01:40:33.171Z,99574.00
2018-06-08T01:43:02.230Z,99568.00
2018-06-08T01:45:31.264Z,99562.00
2018-06-08T01:48:00.311Z,99567.00
2018-06-08T01:50:29.351Z,99565.00
2018-06-08T01:52:58.387Z,99561.00
2018-06-08T01:55:27.427Z,99561.00
2018-06-08T01:57:56.479Z,99563.00
2018-06-08T02:00:25.992Z,99568.00
2018-06-08T02:02:55.044Z,99570.00
2018-06-08T02:05:24.088Z,99566.00
2018-06-08T02:07:53.190Z,99567.00
2018-06-08T02:10:22.317Z,99561.00
2018-06-08T02:12:51.354Z,99564.00
2018-06-08T02:15:20.387Z,99565.00
2018-06-08T02:17:49.516Z,99565.00
2018-06-08T02:20:18.578Z,99561.00
2018-06-08T02:22:47.659Z,99555.00
2018-06-08T02:25:16.704Z,99557.00
2018-06-08T02:27:45.750Z,99556.00
2018-06-08T02:30:14.836Z,99552.00
2018-06-08T02:32:44.051Z,99551.00
2018-06-08T02:35:12.897Z,99544.00
2018-06-08T02:37:41.940Z,99543.00
2018-06-08T02:40:10.985Z,99543.00
2018-06-08T02:42:40.083Z,99540.00
2018-06-08T02:45:09.195Z,99540.00
2018-06-08T02:47:38.302Z,99545.00
2018-06-08T02:50:07.352Z,99548.00
2018-06-08T02:52:36.395Z,99549.00
2018-06-08T02:55:06.214Z,99548.00
2018-06-08T02:57:35.104Z,99544.00
2018-06-08T03:00:04.296Z,99548.00
2018-06-08T03:02:33.389Z,99550.00
2018-06-08T03:05:02.471Z,99550.00
2018-06-08T03:07:31.545Z,99545.00
2018-06-08T03:10:00.591Z,99541.00
2018-06-08T03:12:29.764Z,99545.00
2018-06-08T03:14:58.813Z,99537.00
2018-06-08T03:17:27.877Z,99543.00
2018-06-08T03:19:56.934Z,99546.00
2018-06-08T03:22:26.044Z,99545.00
2018-06-08T03:24:55.054Z,99555.00
2018-06-08T03:27:24.112Z,99561.00
2018-06-08T03:29:53.352Z,99564.00
2018-06-08T03:32:22.178Z,99568.00
2018-06-08T03:34:51.232Z,99571.00
2018-06-08T03:37:20.303Z,99573.00
2018-06-08T03:39:49.336Z,99575.00
2018-06-08T03:42:18.384Z,99575.00
2018-06-08T03:44:47.511Z,99584.00
2018-06-08T03:47:16.580Z,99584.00
2018-06-08T03:49:45.620Z,99585.00
2018-06-08T03:52:14.706Z,99590.00
2018-06-08T03:54:43.759Z,99596.00
2018-06-08T03:57:12.803Z,99593.00
2018-06-08T03:59:41.856Z,99600.00
2018-06-08T04:02:10.923Z,99596.00
2018-06-08T04:04:39.968Z,99600.00
2018-06-08T04:07:09.013Z,99594.00
2018-06-08T04:09:38.084Z,99593.00
2018-06-08T04:12:06.894Z,99592.00
2018-06-08T04:14:35.947Z,99595.00
2018-06-08T04:17:05.008Z,99593.00
2018-06-08T04:19:34.119Z,99594.00
2018-06-08T04:22:03.215Z,99589.00
2018-06-08T04:24:32.275Z,99582.00
2018-06-08T04:27:01.334Z,99583.00
2018-06-08T04:29:30.380Z,99581.00
2018-06-08T04:31:59.460Z,99582.00
2018-06-08T04:34:28.736Z,99579.00
2018-06-08T04:36:57.795Z,99578.00
2018-06-08T04:39:26.875Z,99579.00
2018-06-08T04:41:55.952Z,99580.00
2018-06-08T04:44:25.056Z,99578.00
2018-06-08T04:46:54.079Z,99584.00
2018-06-08T04:49:23.148Z,99583.00
2018-06-08T04:51:52.217Z,99584.00
2018-06-08T04:54:21.267Z,99590.00
2018-06-08T04:56:50.351Z,99593.00
2018-06-08T04:59:19.400Z,99592.00
2018-06-08T05:01:48.483Z,99594.00
2018-06-08T05:04:17.558Z,99597.00
2018-06-08T05:06:46.591Z,99595.00
2018-06-08T05:09:15.671Z,99590.00
2018-06-08T05:11:44.727Z,99593.00
2018-06-08T05:14:13.793Z,99600.00
2018-06-08T05:16:42.827Z,99600.00
2018-06-08T05:19:11.910Z,99602.00
2018-06-08T05:21:41.002Z,99597.00
2018-06-08T05:24:10.072Z,99596.00
2018-06-08T05:26:39.100Z,99594.00
2018-06-08T05:29:08.157Z,99601.00
2018-06-08T05:31:37.205Z,99606.00
2018-06-08T05:34:06.271Z,99607.00
2018-06-08T05:36:35.323Z,99609.00
2018-06-08T05:39:07.752Z,99605.00
2018-06-08T05:41:37.084Z,99608.00
2018-06-08T05:44:06.388Z,99600.00
2018-06-08T05:46:35.480Z,99594.00
2018-06-08T05:49:04.523Z,99593.00
2018-06-08T05:51:33.600Z,99594.00
2018-06-08T05:54:02.703Z,99595.00
2018-06-08T05:56:31.820Z,99592.00
2018-06-08T05:59:00.946Z,99587.00
2018-06-08T06:01:29.981Z,99586.00
2018-06-08T06:03:59.030Z,99586.00
2018-06-08T06:06:28.059Z,99587.00
2018-06-08T06:08:57.132Z,99590.00
2018-06-08T06:11:26.268Z,99595.00
2018-06-08T06:13:55.311Z,99593.00
2018-06-08T06:16:24.390Z,99596.00
2018-06-08T06:18:53.471Z,99595.00
2018-06-08T06:21:23.187Z,99595.00
2018-06-08T06:23:52.250Z,99599.00
2018-06-08T06:26:21.335Z,99604.00
2018-06-08T06:28:50.369Z,99603.00
2018-06-08T06:31:19.419Z,99608.00
2018-06-08T06:33:48.481Z,99612.00
2018-06-08T06:36:17.536Z,99611.00
2018-06-08T06:38:46.580Z,99611.00
2018-06-08T06:41:15.651Z,99613.00
2018-06-08T06:43:44.705Z,99616.00
2018-06-08T06:46:13.752Z,99613.00
2018-06-08T06:48:42.788Z,99613.00
2018-06-08T06:51:11.926Z,99616.00
2018-06-08T06:53:40.947Z,99623.00
2018-06-08T06:56:09.987Z,99620.00
2018-06-08T06:58:39.023Z,99618.00
2018-06-08T07:01:08.108Z,99619.00
2018-06-08T07:03:37.168Z,99615.00
2018-06-08T07:06:06.276Z,99616.00
2018-06-08T07:08:35.335Z,99611.00
2018-06-08T07:11:04.402Z,99611.00
2018-06-08T07:13:33.447Z,99609.00
2018-06-08T07:16:02.523Z,99614.00
2018-06-08T07:18:31.589Z,99615.00
2018-06-08T07:21:00.635Z,99612.00
2018-06-08T07:23:29.711Z,99609.00
2018-06-08T07:25:58.772Z,99608.00
2018-06-08T07:28:27.825Z,99601.00
2018-06-08T07:30:56.887Z,99595.00
2018-06-08T07:33:25.944Z,99594.00
2018-06-08T07:35:55.012Z,99595.00
2018-06-08T07:38:24.057Z,99589.00
2018-06-08T07:40:52.945Z,99595.00
2018-06-08T07:43:21.988Z,99596.00
2018-06-08T07:45:51.936Z,99595.00
2018-06-08T07:48:21.056Z,99595.00
2018-06-08T07:50:50.126Z,99595.00
2018-06-08T07:53:18.931Z,99579.00
2018-06-08T07:55:47.992Z,99579.00
2018-06-08T07:58:17.039Z,99585.00
2018-06-08T08:00:46.111Z,99593.00
2018-06-08T08:03:15.144Z,99584.00
2018-06-08T08:05:43.947Z,99574.00
2018-06-08T08:08:12.986Z,99578.00
2018-06-08T08:10:42.048Z,99590.00
2018-06-08T08:13:11.107Z,99583.00
2018-06-08T08:15:40.247Z,99582.00
2018-06-08T08:18:09.332Z,99580.00
2018-06-08T08:20:38.383Z,99582.00
2018-06-08T08:23:07.463Z,99580.00
2018-06-08T08:25:36.520Z,99579.00
2018-06-08T08:28:05.631Z,99586.00
2018-06-08T08:30:34.984Z,99581.00
2018-06-08T08:33:04.061Z,99583.00
2018-06-08T08:35:33.139Z,99579.00
2018-06-08T08:38:02.209Z,99567.00
2018-06-08T08:40:31.308Z,99566.00
2018-06-08T08:43:00.360Z,99563.00
2018-06-08T08:45:29.411Z,99565.00
2018-06-08T08:47:58.467Z,99575.00
2018-06-08T08:50:27.512Z,99566.00
2018-06-08T08:52:56.576Z,99568.00
2018-06-08T08:55:25.629Z,99554.00
2018-06-08T08:57:54.746Z,99551.00
2018-06-08T09:00:23.787Z,99553.00
2018-06-08T09:02:52.850Z,99545.00
2018-06-08T09:05:21.886Z,99539.00
2018-06-08T09:07:50.940Z,99534.00
2018-06-08T09:10:19.991Z,99533.00
2018-06-08T09:12:49.059Z,99536.00
2018-06-08T09:15:18.102Z,99531.00
2018-06-08T09:17:47.216Z,99527.00
2018-06-08T09:20:16.334Z,99524.00
2018-06-08T09:22:45.422Z,99520.00
2018-06-08T09:25:14.467Z,99519.00
2018-06-08T09:27:43.523Z,99512.00
2018-06-08T09:30:12.560Z,99506.00
2018-06-08T09:32:41.632Z,99510.00
2018-06-08T09:35:10.679Z,99501.00
2018-06-08T09:37:39.790Z,99496.00
2018-06-08T09:40:08.868Z,99496.00
2018-06-08T09:42:37.916Z,99497.00
2018-06-08T09:45:06.976Z,99502.00
2018-06-08T09:47:36.025Z,99499.00
2018-06-08T09:50:05.154Z,99498.00
2018-06-08T09:52:34.241Z,99498.00
2018-06-08T09:55:03.313Z,99494.00
2018-06-08T09:57:32.463Z,99494.00
2018-06-08T10:00:01.540Z,99488.00
2018-06-08T10:02:30.668Z,99488.00
2018-06-08T10:04:59.723Z,99485.00
2018-06-08T10:07:28.801Z,99486.00
2018-06-08T10:09:57.879Z,99489.00
2018-06-08T10:12:26.947Z,99494.00
2018-06-08T10:14:55.998Z,99486.00
2018-06-08T10:17:25.129Z,99488.00
2018-06-08T10:19:54.208Z,99486.00
2018-06-08T10:22:23.098Z,99482.00
2018-06-08T10:24:52.136Z,99481.00
2018-06-08T10:27:21.340Z,99488.00
2018-06-08T10:29:50.462Z,99485.00
2018-06-08T10:32:19.513Z,99484.00
2018-06-08T10:34:48.559Z,99480.00
2018-06-08T10:37:17.623Z,99482.00
2018-06-08T10:39:46.683Z,99480.00
2018-06-08T10:42:15.743Z,99491.00
2018-06-08T10:44:44.811Z,99487.00
2018-06-08T10:47:13.863Z,99482.00
2018-06-08T10:49:42.929Z,99478.00
2018-06-08T10:52:12.852Z,99479.00
2018-06-08T10:54:41.909Z,99477.00
2018-06-08T10:57:10.979Z,99478.00
2018-06-08T10:59:40.020Z,99481.00
2018-06-08T11:02:09.155Z,99482.00
2018-06-08T11:04:38.227Z,99483.00
2018-06-08T11:07:07.288Z,99479.00
2018-06-08T11:09:36.343Z,99477.00
2018-06-08T11:12:05.493Z,99476.00
2018-06-08T11:14:34.582Z,99471.00
2018-06-08T11:17:03.644Z,99476.00
2018-06-08T11:19:32.736Z,99466.00
2018-06-08T11:22:01.798Z,99463.00
2018-06-08T11:24:30.856Z,99461.00
2018-06-08T11:26:59.999Z,99454.00
2018-06-08T11:29:29.079Z,99445.00
2018-06-08T11:31:58.136Z,99443.00
2018-06-08T11:34:27.203Z,99439.00
2018-06-08T11:36:56.316Z,99434.00
2018-06-08T11:39:25.378Z,99430.00
2018-06-08T11:41:54.425Z,99434.00
2018-06-08T11:44:23.475Z,99431.00
2018-06-08T11:46:52.545Z,99420.00
2018-06-08T11:49:21.609Z,99418.00
2018-06-08T11:51:50.657Z,99419.00
2018-06-08T11:54:19.703Z,99421.00
2018-06-08T11:56:48.812Z,99406.00
2018-06-08T11:59:17.920Z,99410.00
2018-06-08T12:01:47.035Z,99400.00
2018-06-08T12:04:16.110Z,99397.00
2018-06-08T12:06:45.199Z,99388.00
2018-06-08T12:09:14.110Z,99384.00
2018-06-08T12:11:43.192Z,99383.00
2018-06-08T12:14:12.261Z,99375.00
2018-06-08T12:16:41.342Z,99368.00
2018-06-08T12:19:10.419Z,99368.00
2018-06-08T12:21:39.484Z,99366.00
2018-06-08T12:24:08.607Z,99364.00
2018-06-08T12:26:37.709Z,99357.00
2018-06-08T12:29:06.771Z,99355.00
2018-06-08T12:31:35.820Z,99348.00
2018-06-08T12:34:04.956Z,99346.00
2018-06-08T12:36:33.991Z,99345.00
2018-06-08T12:39:03.059Z,99341.00
2018-06-08T12:41:32.107Z,99336.00
2018-06-08T12:44:01.164Z,99337.00
2018-06-08T12:46:30.222Z,99329.00
2018-06-08T12:48:59.151Z,99331.00
2018-06-08T12:51:28.173Z,99326.00
2018-06-08T12:53:57.254Z,99319.00
2018-06-08T12:56:26.219Z,99316.00
2018-06-08T12:58:55.276Z,99324.00
2018-06-08T13:01:24.392Z,99326.00
2018-06-08T13:03:53.440Z,99320.00
2018-06-08T13:06:22.471Z,99324.00
2018-06-08T13:08:51.563Z,99323.00
2018-06-08T13:11:20.614Z,99327.00
2018-06-08T13:13:49.692Z,99321.00
2018-06-08T13:16:18.776Z,99320.00
2018-06-08T13:18:47.840Z,99311.00
2018-06-08T13:21:17.006Z,99316.00
2018-06-08T13:23:46.016Z,99317.00
2018-06-08T13:26:15.061Z,99317.00
2018-06-08T13:28:44.111Z,99309.00
2018-06-08T13:31:13.258Z,99311.00
2018-06-08T13:33:42.302Z,99304.00
2018-06-08T13:36:11.347Z,99304.00
2018-06-08T13:38:40.608Z,99306.00
2018-06-08T13:41:09.660Z,99307.00
2018-06-08T13:43:38.719Z,99305.00
2018-06-08T13:46:23.644Z,99299.00
2018-06-08T13:48:52.711Z,99291.00
2018-06-08T13:51:21.790Z,99286.00
2018-06-08T13:53:50.844Z,99279.00
2018-06-08T13:56:19.944Z,99277.00
2018-06-08T13:58:48.994Z,99274.00
2018-06-08T14:01:18.052Z,99269.00
2018-06-08T14:03:47.160Z,99268.00
2018-06-08T14:06:16.200Z,99259.00
2018-06-08T14:08:45.275Z,99260.00
2018-06-08T14:11:14.258Z,99255.00
2018-06-08T14:13:43.324Z,99256.00
2018-06-08T14:16:12.403Z,99252.00
2018-06-08T14:18:41.533Z,99251.00
2018-06-08T14:21:10.580Z,99241.00
2018-06-08T14:23:39.632Z,99236.00
2018-06-08T14:26:08.700Z,99229.00
2018-06-08T14:28:37.742Z,99230.00
2018-06-08T14:31:06.807Z,99231.00
2018-06-08T14:33:35.852Z,99226.00
2018-06-08T14:36:04.899Z,99227.00
2018-06-08T14:38:33.967Z,99218.00
2018-06-08T14:41:03.026Z,99221.00
2018-06-08T14:43:32.071Z,99222.00
2018-06-08T14:46:01.126Z,99224.00
2018-06-08T14:48:30.171Z,99216.00
2018-06-08T14:50:59.347Z,99223.00
2018-06-08T14:53:28.467Z,99226.00
2018-06-08T14:55:57.463Z,99235.00
2018-06-08T14:58:26.512Z,99236.00
2018-06-08T15:00:55.588Z,99234.00
2018-06-08T15:03:24.658Z,99227.00
2018-06-08T15:05:53.734Z,99223.00
2018-06-08T15:08:22.804Z,99225.00
2018-06-08T15:10:51.868Z,99227.00
2018-06-08T15:13:20.936Z,99225.00
2018-06-08T15:15:50.007Z,99227.00
2018-06-08T15:18:19.055Z,99238.00
2018-06-08T15:20:48.122Z,99238.00
2018-06-08T15:23:17.160Z,99234.00
2018-06-08T15:25:46.243Z,99237.00
2018-06-08T15:28:15.291Z,99239.00
2018-06-08T15:30:44.347Z,99246.00
2018-06-08T15:33:13.392Z,99250.00
2018-06-08T15:35:42.445Z,99240.00
2018-06-08T15:38:11.500Z,99237.00
2018-06-08T15:40:40.652Z,99232.00
2018-06-08T15:43:09.688Z,99234.00
2018-06-08T15:45:38.747Z,99239.00
2018-06-08T15:48:07.836Z,99231.00
2018-06-08T15:50:36.992Z,99227.00
2018-06-08T15:53:06.140Z,99227.00
2018-06-08T15:55:35.203Z,99229.00
2018-06-08T15:58:04.351Z,99227.00
2018-06-08T16:00:33.400Z,99225.00
2018-06-08T16:03:02.448Z,99225.00
2018-06-08T16:05:31.515Z,99221.00
2018-06-08T16:08:00.585Z,99215.00
2018-06-08T16:10:29.807Z,99216.00
2018-06-08T16:12:58.851Z,99209.00
2018-06-08T16:15:27.973Z,99209.00
2018-06-08T16:17:57.049Z,99202.00
2018-06-08T16:20:26.158Z,99204.00
2018-06-08T16:22:55.231Z,99222.00
2018-06-08T16:25:24.139Z,99231.00
2018-06-08T16:27:53.195Z,99228.00
2018-06-08T16:30:22.260Z,99226.00
2018-06-08T16:32:51.106Z,99223.00
2018-06-08T16:35:20.171Z,99225.00
2018-06-08T16:37:49.232Z,99224.00
2018-06-08T16:40:18.298Z,99232.00
2018-06-08T16:42:47.162Z,99239.00
2018-06-08T16:45:16.199Z,99243.00
2018-06-08T16:47:45.303Z,99243.00
2018-06-08T16:50:14.119Z,99247.00
2018-06-08T16:52:43.302Z,99255.00
2018-06-08T16:55:12.357Z,99259.00
2018-06-08T16:57:41.444Z,99260.00
2018-06-08T17:00:10.492Z,99258.00
2018-06-08T17:02:39.869Z,99256.00
2018-06-08T17:05:08.976Z,99263.00
2018-06-08T17:07:38.075Z,99284.00
2018-06-08T17:10:07.119Z,99282.00
2018-06-08T17:12:36.191Z,99281.00
2018-06-08T17:15:05.732Z,99281.00
2018-06-08T17:17:34.871Z,99278.00
2018-06-08T17:20:03.931Z,99274.00
2018-06-08T17:22:32.992Z,99278.00
2018-06-08T17:25:02.028Z,99284.00
2018-06-08T17:27:31.119Z,99289.00
2018-06-08T17:30:00.157Z,99296.00
2018-06-08T17:32:29.235Z,99300.00
2018-06-08T17:34:58.275Z,99303.00
2018-06-08T17:37:27.249Z,99307.00
2018-06-08T17:39:56.319Z,99306.00
2018-06-08T17:42:25.447Z,99304.00
2018-06-08T17:44:54.510Z,99302.00
2018-06-08T17:47:23.383Z,99306.00
2018-06-08T17:49:52.448Z,99303.00
2018-06-08T17:52:21.767Z,99307.00
2018-06-08T17:54:50.799Z,99300.00
2018-06-08T17:57:19.900Z,99301.00
2018-06-08T17:59:48.883Z,99310.00
2018-06-08T18:02:18.012Z,99309.00
2018-06-08T18:04:47.075Z,99308.00
2018-06-08T18:07:18.935Z,99307.00
2018-06-08T18:09:48.070Z,99310.00
2018-06-08T18:12:21.092Z,99309.00
2018-06-08T18:14:50.168Z,99316.00
2018-06-08T18:17:19.225Z,99312.00
2018-06-08T18:19:48.292Z,99307.00
2018-06-08T18:22:17.330Z,99310.00
2018-06-08T18:24:47.335Z,99319.00
2018-06-08T18:27:16.454Z,99328.00
2018-06-08T18:29:45.495Z,99322.00
2018-06-08T18:32:14.579Z,99335.00
2018-06-08T18:34:43.796Z,99339.00
2018-06-08T18:37:12.858Z,99342.00
2018-06-08T18:39:41.987Z,99345.00
2018-06-08T18:42:11.092Z,99344.00
2018-06-08T18:44:40.157Z,99349.00
2018-06-08T18:47:09.219Z,99348.00
2018-06-08T18:49:38.280Z,99343.00
2018-06-08T18:52:07.338Z,99346.00
2018-06-08T18:54:36.396Z,99344.00
2018-06-08T18:57:05.666Z,99343.00
2018-06-08T18:59:34.774Z,99345.00
2018-06-08T19:02:03.980Z,99351.00
2018-06-08T19:04:33.131Z,99348.00
2018-06-08T19:07:02.196Z,99348.00
2018-06-08T19:09:31.343Z,99351.00
2018-06-08T19:12:00.401Z,99351.00
2018-06-08T19:14:29.512Z,99353.00
2018-06-08T19:16:58.583Z,99351.00
2018-06-08T19:19:27.700Z,99353.00
2018-06-08T19:21:56.744Z,99351.00
2018-06-08T19:24:25.812Z,99354.00
2018-06-08T19:26:54.908Z,99347.00
2018-06-08T19:29:24.055Z,99352.00
2018-06-08T19:31:53.115Z,99347.00
2018-06-08T19:34:22.175Z,99346.00
2018-06-08T19:36:51.242Z,99350.00
2018-06-08T19:39:20.399Z,99350.00
2018-06-08T19:41:49.448Z,99352.00
2018-06-08T19:44:18.599Z,99355.00
2018-06-08T19:46:47.751Z,99367.00
2018-06-08T19:49:16.807Z,99367.00
2018-06-08T19:51:45.975Z,99360.00
2018-06-08T19:54:15.028Z,99359.00
2018-06-08T19:56:44.175Z,99361.00
2018-06-08T19:59:13.223Z,99360.00
2018-06-08T20:01:42.428Z,99370.00
2018-06-08T20:04:11.459Z,99377.00
2018-06-08T20:06:40.667Z,99373.00
2018-06-08T20:09:09.772Z,99380.00
2018-06-08T20:11:38.823Z,99380.00
2018-06-08T20:14:07.978Z,99384.00
2018-06-08T20:16:37.014Z,99385.00
2018-06-08T20:19:06.139Z,99382.00
2018-06-08T20:21:35.135Z,99385.00
2018-06-08T20:24:04.202Z,99390.00
2018-06-08T20:26:33.279Z,99394.00
2018-06-08T20:29:02.407Z,99391.00
2018-06-08T20:31:31.444Z,99393.00
2018-06-08T20:34:00.495Z,99388.00
2018-06-08T20:36:29.563Z,99390.00
2018-06-08T20:38:58.744Z,99392.00
2018-06-08T20:41:27.868Z,99389.00
2018-06-08T20:43:57.043Z,99387.00
2018-06-08T20:46:26.103Z,99378.00
2018-06-08T20:48:55.153Z,99375.00
2018-06-08T20:51:24.199Z,99378.00
2018-06-08T20:53:53.267Z,99377.00
2018-06-08T20:56:22.383Z,99371.00
2018-06-08T20:58:51.400Z,99370.00
2018-06-08T21:01:20.451Z,99367.00
2018-06-08T21:03:49.497Z,99367.00
2018-06-08T21:06:18.542Z,99363.00
2018-06-08T21:08:47.635Z,99365.00
2018-06-08T21:11:16.721Z,99363.00
2018-06-08T21:13:45.764Z,99362.00
2018-06-08T21:16:14.847Z,99364.00
2018-06-08T21:18:43.892Z,99366.00
2018-06-08T21:21:12.951Z,99362.00
2018-06-08T21:23:42.077Z,99366.00
2018-06-08T21:26:11.138Z,99371.00
2018-06-08T21:28:40.203Z,99373.00
2018-06-08T21:31:09.291Z,99382.00
2018-06-08T21:33:38.186Z,99386.00
2018-06-08T21:36:07.235Z,99392.00
2018-06-08T21:38:36.326Z,99389.00
2018-06-08T21:41:05.375Z,99395.00
2018-06-08T21:43:34.440Z,99396.00
2018-06-08T21:46:03.548Z,99405.00
2018-06-08T21:48:32.609Z,99411.00
2018-06-08T21:51:01.659Z,99416.00
2018-06-08T21:53:30.699Z,99412.00
2018-06-08T21:55:59.819Z,99408.00
2018-06-08T21:58:28.900Z,99405.00
2018-06-08T22:00:58.456Z,99405.00
2018-06-08T22:03:27.499Z,99406.00
2018-06-08T22:05:56.559Z,99400.00
2018-06-08T22:08:25.600Z,99400.00
2018-06-08T22:10:54.652Z,99391.00
2018-06-08T22:13:23.703Z,99398.00
2018-06-08T22:15:52.755Z,99400.00
2018-06-08T22:18:21.815Z,99403.00
2018-06-08T22:20:50.867Z,99396.00
2018-06-08T22:23:19.932Z,99394.00
2018-06-08T22:25:48.969Z,99395.00
2018-06-08T22:28:18.091Z,99395.00
2018-06-08T22:30:47.348Z,99393.00
2018-06-08T22:33:16.412Z,99390.00
2018-06-08T22:35:45.467Z,99396.00
2018-06-08T22:38:14.531Z,99391.00
2018-06-08T22:40:43.595Z,99392.00
2018-06-08T22:43:12.639Z,99392.00
2018-06-08T22:45:41.715Z,99389.00
2018-06-08T22:48:10.768Z,99390.00
2018-06-08T22:50:39.855Z,99392.00
2018-06-08T22:53:08.984Z,99398.00
2018-06-08T22:55:38.047Z,99402.00
2018-06-08T22:58:07.101Z,99395.00
2018-06-08T23:00:36.192Z,99396.00
2018-06-08T23:03:05.240Z,99393.00
2018-06-08T23:05:34.315Z,99386.00
2018-06-08T23:08:03.444Z,99385.00
2018-06-08T23:10:32.544Z,99388.00
2018-06-08T23:13:01.612Z,99380.00
2018-06-08T23:15:30.668Z,99380.00
2018-06-08T23:17:59.727Z,99375.00
2018-06-08T23:20:28.784Z,99377.00
2018-06-08T23:22:57.847Z,99384.00
2018-06-08T23:25:26.899Z,99380.00
2018-06-08T23:27:55.955Z,99377.00
2018-06-08T23:30:25.024Z,99371.00
2018-06-08T23:32:54.107Z,99369.00
2018-06-08T23:35:23.148Z,99373.00
2018-06-08T23:37:52.224Z,99373.00
2018-06-08T23:40:21.280Z,99379.00
2018-06-08T23:42:50.494Z,99375.00
2018-06-08T23:45:19.536Z,99369.00
2018-06-08T23:47:48.593Z,99372.00
2018-06-08T23:50:17.643Z,99369.00
2018-06-08T23:52:46.700Z,99366.00
2018-06-08T23:55:15.772Z,99367.00
2018-06-08T23:57:44.883Z,99369.00
